sensor_id;sensor_type;location;lat;lon;timestamp;P1;durP1;ratioP1;P2;durP2;ratioP2
9280;SDS011;4679;47.966;7.958;2022-08-19T05:38:58;20.90;;;18.73;;
9280;SDS011;4679;47.966;7.958;2022-08-19T05:41:00;20.77;;;18.57;;
9280;SDS011;4679;47.966;7.958;2022-08-19T05:43:03;21.17;;;18.97;;
9280;SDS011;4679;47.966;7.958;2022-08-19T05:45:06;20.17;;;18.10;;
9280;SDS011;4679;47.966;7.958;2022-08-19T05:47:08;18.17;;;16.57;;
9280;SDS011;4679;47.966;7.958;2022-08-19T05:49:10;17.20;;;15.60;;
9280;SDS011;4679;47.966;7.958;2022-08-19T05:51:12;19.50;;;17.47;;
9280;SDS011;4679;47.966;7.958;2022-08-19T05:53:14;16.97;;;15.23;;
9280;SDS011;4679;47.966;7.958;2022-08-19T05:55:18;17.63;;;15.70;;
9280;SDS011;4679;47.966;7.958;2022-08-19T05:57:20;17.93;;;16.23;;
9280;SDS011;4679;47.966;7.958;2022-08-19T05:59:22;18.37;;;16.57;;
9280;SDS011;4679;47.966;7.958;2022-08-19T06:01:24;18.53;;;16.93;;
9280;SDS011;4679;47.966;7.958;2022-08-19T06:03:27;19.67;;;17.60;;
9280;SDS011;4679;47.966;7.958;2022-08-19T06:05:29;19.87;;;17.93;;
9280;SDS011;4679;47.966;7.958;2022-08-19T06:07:31;18.80;;;17.10;;
9280;SDS011;4679;47.966;7.958;2022-08-19T06:09:32;19.07;;;17.10;;
9280;SDS011;4679;47.966;7.958;2022-08-19T06:11:37;19.67;;;17.87;;
9280;SDS011;4679;47.966;7.958;2022-08-19T06:13:41;19.37;;;16.77;;
9280;SDS011;4679;47.966;7.958;2022-08-19T06:15:45;18.63;;;17.13;;
9280;SDS011;4679;47.966;7.958;2022-08-19T06:17:47;20.03;;;18.13;;
9280;SDS011;4679;47.966;7.958;2022-08-19T06:19:49;18.47;;;16.77;;
9280;SDS011;4679;47.966;7.958;2022-08-19T06:21:51;19.50;;;17.57;;
9280;SDS011;4679;47.966;7.958;2022-08-19T06:23:54;19.03;;;17.33;;
9280;SDS011;4679;47.966;7.958;2022-08-19T06:25:57;18.53;;;16.93;;
9280;SDS011;4679;47.966;7.958;2022-08-19T06:28:00;20.20;;;18.13;;
9280;SDS011;4679;47.966;7.958;2022-08-19T06:30:02;19.00;;;17.27;;
9280;SDS011;4679;47.966;7.958;2022-08-19T06:32:05;19.63;;;17.63;;
9280;SDS011;4679;47.966;7.958;2022-08-19T06:34:07;20.90;;;18.70;;
9280;SDS011;4679;47.966;7.958;2022-08-19T06:36:15;18.03;;;16.33;;
9280;SDS011;4679;47.966;7.958;2022-08-19T06:38:18;19.00;;;17.10;;
9280;SDS011;4679;47.966;7.958;2022-08-19T06:40:23;19.50;;;17.40;;
9280;SDS011;4679;47.966;7.958;2022-08-19T06:42:25;19.93;;;18.03;;
9280;SDS011;4679;47.966;7.958;2022-08-19T06:44:30;18.30;;;16.60;;
9280;SDS011;4679;47.966;7.958;2022-08-19T06:46:35;20.17;;;18.27;;
9280;SDS011;4679;47.966;7.958;2022-08-19T06:48:37;20.07;;;17.87;;
9280;SDS011;4679;47.966;7.958;2022-08-19T06:50:39;18.83;;;17.00;;
9280;SDS011;4679;47.966;7.958;2022-08-19T06:52:40;17.80;;;16.10;;
9280;SDS011;4679;47.966;7.958;2022-08-19T06:54:42;19.63;;;17.73;;
9280;SDS011;4679;47.966;7.958;2022-08-19T06:56:44;18.37;;;16.47;;
9280;SDS011;4679;47.966;7.958;2022-08-19T06:58:46;17.63;;;16.03;;
9280;SDS011;4679;47.966;7.958;2022-08-19T07:00:54;20.27;;;18.27;;
9280;SDS011;4679;47.966;7.958;2022-08-19T07:02:57;18.57;;;16.70;;
9280;SDS011;4679;47.966;7.958;2022-08-19T07:05:00;18.80;;;17.00;;
9280;SDS011;4679;47.966;7.958;2022-08-19T07:07:05;18.50;;;16.70;;
9280;SDS011;4679;47.966;7.958;2022-08-19T07:09:10;19.03;;;17.23;;
9280;SDS011;4679;47.966;7.958;2022-08-19T07:11:14;18.53;;;16.77;;
9280;SDS011;4679;47.966;7.958;2022-08-19T07:13:18;21.03;;;18.20;;
9280;SDS011;4679;47.966;7.958;2022-08-19T07:15:21;17.30;;;15.63;;
9280;SDS011;4679;47.966;7.958;2022-08-19T07:17:25;17.63;;;16.10;;
9280;SDS011;4679;47.966;7.958;2022-08-19T07:19:26;18.20;;;16.43;;
9280;SDS011;4679;47.966;7.958;2022-08-19T07:21:30;19.77;;;17.80;;
9280;SDS011;4679;47.966;7.958;2022-08-19T07:23:32;20.60;;;18.43;;
9280;SDS011;4679;47.966;7.958;2022-08-19T07:25:35;20.97;;;18.77;;
9280;SDS011;4679;47.966;7.958;2022-08-19T07:27:37;21.20;;;19.03;;
9280;SDS011;4679;47.966;7.958;2022-08-19T07:29:39;21.63;;;19.33;;
9280;SDS011;4679;47.966;7.958;2022-08-19T07:31:41;20.83;;;18.73;;
9280;SDS011;4679;47.966;7.958;2022-08-19T07:33:44;22.83;;;20.60;;
9280;SDS011;4679;47.966;7.958;2022-08-19T07:35:47;22.87;;;20.47;;
9280;SDS011;4679;47.966;7.958;2022-08-19T07:37:49;23.10;;;20.93;;
9280;SDS011;4679;47.966;7.958;2022-08-19T07:39:52;24.27;;;21.37;;
9280;SDS011;4679;47.966;7.958;2022-08-19T07:41:54;25.13;;;22.67;;
9280;SDS011;4679;47.966;7.958;2022-08-19T07:43:58;26.63;;;23.80;;
9280;SDS011;4679;47.966;7.958;2022-08-19T07:46:03;29.17;;;25.57;;
9280;SDS011;4679;47.966;7.958;2022-08-19T07:48:05;27.37;;;24.47;;
9280;SDS011;4679;47.966;7.958;2022-08-19T07:50:09;28.77;;;24.97;;
9280;SDS011;4679;47.966;7.958;2022-08-19T07:52:11;29.47;;;25.10;;
9280;SDS011;4679;47.966;7.958;2022-08-19T07:54:13;28.17;;;24.93;;
9280;SDS011;4679;47.966;7.958;2022-08-19T07:56:16;27.63;;;24.67;;
9280;SDS011;4679;47.966;7.958;2022-08-19T07:58:19;26.00;;;23.00;;
9280;SDS011;4679;47.966;7.958;2022-08-19T08:00:23;28.47;;;25.47;;
9280;SDS011;4679;47.966;7.958;2022-08-19T08:02:24;28.27;;;25.13;;
9280;SDS011;4679;47.966;7.958;2022-08-19T08:04:26;29.13;;;26.13;;
9280;SDS011;4679;47.966;7.958;2022-08-19T08:06:47;27.77;;;24.73;;
9280;SDS011;4679;47.966;7.958;2022-08-19T08:09:06;29.20;;;26.07;;
9280;SDS011;4679;47.966;7.958;2022-08-19T08:11:12;29.97;;;26.77;;
9280;SDS011;4679;47.966;7.958;2022-08-19T08:13:15;29.07;;;25.80;;
9280;SDS011;4679;47.966;7.958;2022-08-19T08:15:16;27.27;;;24.53;;
9280;SDS011;4679;47.966;7.958;2022-08-19T08:17:19;27.73;;;24.20;;
9280;SDS011;4679;47.966;7.958;2022-08-19T08:19:23;29.67;;;26.53;;
9280;SDS011;4679;47.966;7.958;2022-08-19T08:21:26;29.50;;;26.57;;
9280;SDS011;4679;47.966;7.958;2022-08-19T08:23:29;29.20;;;26.10;;
9280;SDS011;4679;47.966;7.958;2022-08-19T08:25:30;29.93;;;26.83;;
9280;SDS011;4679;47.966;7.958;2022-08-19T08:27:34;31.47;;;27.20;;
9280;SDS011;4679;47.966;7.958;2022-08-19T08:29:39;28.43;;;25.47;;
9280;SDS011;4679;47.966;7.958;2022-08-19T08:31:42;29.60;;;26.57;;
9280;SDS011;4679;47.966;7.958;2022-08-19T08:33:45;30.53;;;27.23;;
9280;SDS011;4679;47.966;7.958;2022-08-19T08:35:48;29.60;;;26.57;;
9280;SDS011;4679;47.966;7.958;2022-08-19T08:37:50;28.70;;;25.60;;
9280;SDS011;4679;47.966;7.958;2022-08-19T08:39:54;30.07;;;26.97;;
9280;SDS011;4679;47.966;7.958;2022-08-19T08:41:58;31.70;;;28.40;;
9280;SDS011;4679;47.966;7.958;2022-08-19T08:44:11;28.77;;;25.57;;
9280;SDS011;4679;47.966;7.958;2022-08-19T08:46:19;29.70;;;26.73;;
9280;SDS011;4679;47.966;7.958;2022-08-19T08:48:30;29.63;;;26.63;;
9280;SDS011;4679;47.966;7.958;2022-08-19T08:50:39;29.07;;;26.07;;
9280;SDS011;4679;47.966;7.958;2022-08-19T08:52:45;31.60;;;28.27;;
9280;SDS011;4679;47.966;7.958;2022-08-19T08:54:48;29.67;;;26.40;;
9280;SDS011;4679;47.966;7.958;2022-08-19T08:56:54;29.20;;;26.07;;
9280;SDS011;4679;47.966;7.958;2022-08-19T08:58:57;29.20;;;26.37;;
9280;SDS011;4679;47.966;7.958;2022-08-19T09:01:01;27.30;;;24.70;;
9280;SDS011;4679;47.966;7.958;2022-08-19T09:03:03;26.30;;;23.80;;
9280;SDS011;4679;47.966;7.958;2022-08-19T09:05:10;26.57;;;23.87;;
9280;SDS011;4679;47.966;7.958;2022-08-19T09:07:17;27.40;;;24.77;;
9280;SDS011;4679;47.966;7.958;2022-08-19T09:09:32;26.53;;;23.93;;
9280;SDS011;4679;47.966;7.958;2022-08-19T09:11:43;27.37;;;24.47;;
9280;SDS011;4679;47.966;7.958;2022-08-19T09:13:55;24.80;;;22.30;;
9280;SDS011;4679;47.966;7.958;2022-08-19T09:16:05;27.70;;;24.97;;
9280;SDS011;4679;47.966;7.958;2022-08-19T09:18:08;27.60;;;24.90;;
9280;SDS011;4679;47.966;7.958;2022-08-19T09:20:14;28.67;;;25.77;;
9280;SDS011;4679;47.966;7.958;2022-08-19T09:22:19;27.50;;;24.83;;
9280;SDS011;4679;47.966;7.958;2022-08-19T09:24:22;29.53;;;26.53;;
9280;SDS011;4679;47.966;7.958;2022-08-19T09:26:24;28.53;;;25.70;;
9280;SDS011;4679;47.966;7.958;2022-08-19T09:28:26;29.20;;;26.40;;
9280;SDS011;4679;47.966;7.958;2022-08-19T09:30:32;30.23;;;27.10;;
9280;SDS011;4679;47.966;7.958;2022-08-19T09:32:36;28.40;;;25.50;;
9280;SDS011;4679;47.966;7.958;2022-08-19T09:34:39;28.10;;;25.30;;
9280;SDS011;4679;47.966;7.958;2022-08-19T09:36:41;27.50;;;24.77;;
9280;SDS011;4679;47.966;7.958;2022-08-19T09:38:43;25.43;;;22.90;;
9280;SDS011;4679;47.966;7.958;2022-08-19T09:40:45;27.50;;;24.70;;
9280;SDS011;4679;47.966;7.958;2022-08-19T09:42:47;26.83;;;24.10;;
9280;SDS011;4679;47.966;7.958;2022-08-19T09:44:49;27.37;;;24.63;;
9280;SDS011;4679;47.966;7.958;2022-08-19T09:46:52;29.20;;;25.43;;
9280;SDS011;4679;47.966;7.958;2022-08-19T09:48:54;27.40;;;24.70;;
9280;SDS011;4679;47.966;7.958;2022-08-19T09:51:02;26.63;;;22.73;;
9280;SDS011;4679;47.966;7.958;2022-08-19T09:53:05;24.53;;;22.23;;
9280;SDS011;4679;47.966;7.958;2022-08-19T09:55:09;26.20;;;23.50;;
9280;SDS011;4679;47.966;7.958;2022-08-19T09:57:11;25.93;;;23.43;;
9280;SDS011;4679;47.966;7.958;2022-08-19T09:59:13;25.00;;;22.60;;
9280;SDS011;4679;47.966;7.958;2022-08-19T10:01:15;26.37;;;23.77;;
9280;SDS011;4679;47.966;7.958;2022-08-19T10:03:20;26.13;;;23.60;;
9280;SDS011;4679;47.966;7.958;2022-08-19T10:05:22;24.53;;;22.20;;
9280;SDS011;4679;47.966;7.958;2022-08-19T10:07:41;25.93;;;23.30;;
9280;SDS011;4679;47.966;7.958;2022-08-19T10:09:43;24.77;;;22.27;;
9280;SDS011;4679;47.966;7.958;2022-08-19T10:11:45;25.30;;;22.80;;
9280;SDS011;4679;47.966;7.958;2022-08-19T10:13:48;26.23;;;23.73;;
9280;SDS011;4679;47.966;7.958;2022-08-19T10:15:50;25.90;;;23.40;;
9280;SDS011;4679;47.966;7.958;2022-08-19T10:17:53;26.53;;;23.90;;
9280;SDS011;4679;47.966;7.958;2022-08-19T10:19:56;26.57;;;24.00;;
9280;SDS011;4679;47.966;7.958;2022-08-19T10:21:57;25.43;;;22.97;;
9280;SDS011;4679;47.966;7.958;2022-08-19T10:24:00;24.93;;;22.43;;
9280;SDS011;4679;47.966;7.958;2022-08-19T10:26:04;25.50;;;23.00;;
9280;SDS011;4679;47.966;7.958;2022-08-19T10:28:06;27.07;;;24.13;;
9280;SDS011;4679;47.966;7.958;2022-08-19T10:30:09;25.80;;;23.30;;
9280;SDS011;4679;47.966;7.958;2022-08-19T10:32:11;27.53;;;24.50;;
9280;SDS011;4679;47.966;7.958;2022-08-19T10:34:13;26.30;;;23.63;;
9280;SDS011;4679;47.966;7.958;2022-08-19T10:36:17;24.57;;;22.47;;
9280;SDS011;4679;47.966;7.958;2022-08-19T10:38:22;26.20;;;23.60;;
9280;SDS011;4679;47.966;7.958;2022-08-19T10:40:24;26.17;;;23.67;;
9280;SDS011;4679;47.966;7.958;2022-08-19T10:42:27;23.70;;;21.40;;
9280;SDS011;4679;47.966;7.958;2022-08-19T10:44:31;24.93;;;22.53;;
9280;SDS011;4679;47.966;7.958;2022-08-19T10:46:36;24.30;;;22.10;;
9280;SDS011;4679;47.966;7.958;2022-08-19T10:48:41;24.43;;;22.10;;
9280;SDS011;4679;47.966;7.958;2022-08-19T10:50:44;23.80;;;21.43;;
9280;SDS011;4679;47.966;7.958;2022-08-19T10:53:05;26.20;;;21.97;;
9280;SDS011;4679;47.966;7.958;2022-08-19T10:55:09;23.27;;;21.10;;
9280;SDS011;4679;47.966;7.958;2022-08-19T10:57:30;23.67;;;21.47;;
9280;SDS011;4679;47.966;7.958;2022-08-19T10:59:31;25.43;;;22.80;;
9280;SDS011;4679;47.966;7.958;2022-08-19T11:01:33;28.73;;;22.57;;
9280;SDS011;4679;47.966;7.958;2022-08-19T11:03:36;22.97;;;20.77;;
9280;SDS011;4679;47.966;7.958;2022-08-19T11:05:37;24.40;;;21.83;;
9280;SDS011;4679;47.966;7.958;2022-08-19T11:07:40;23.57;;;21.23;;
9280;SDS011;4679;47.966;7.958;2022-08-19T11:09:43;23.77;;;21.23;;
9280;SDS011;4679;47.966;7.958;2022-08-19T11:11:46;21.83;;;19.97;;
9280;SDS011;4679;47.966;7.958;2022-08-19T11:13:48;23.87;;;21.53;;
9280;SDS011;4679;47.966;7.958;2022-08-19T11:15:57;22.70;;;20.50;;
9280;SDS011;4679;47.966;7.958;2022-08-19T11:18:00;23.33;;;21.03;;
9280;SDS011;4679;47.966;7.958;2022-08-19T11:20:02;23.93;;;21.73;;
9280;SDS011;4679;47.966;7.958;2022-08-19T11:22:07;22.77;;;20.60;;
9280;SDS011;4679;47.966;7.958;2022-08-19T11:24:11;22.00;;;20.10;;
9280;SDS011;4679;47.966;7.958;2022-08-19T11:26:16;21.63;;;19.57;;
9280;SDS011;4679;47.966;7.958;2022-08-19T11:28:18;23.67;;;21.23;;
9280;SDS011;4679;47.966;7.958;2022-08-19T11:30:20;22.57;;;20.50;;
9280;SDS011;4679;47.966;7.958;2022-08-19T11:32:22;22.03;;;19.90;;
9280;SDS011;4679;47.966;7.958;2022-08-19T11:34:26;21.83;;;19.93;;
9280;SDS011;4679;47.966;7.958;2022-08-19T11:36:28;20.53;;;18.87;;
9280;SDS011;4679;47.966;7.958;2022-08-19T11:38:31;22.10;;;20.13;;
9280;SDS011;4679;47.966;7.958;2022-08-19T11:40:33;20.73;;;18.67;;
9280;SDS011;4679;47.966;7.958;2022-08-19T11:42:36;19.37;;;17.57;;
9280;SDS011;4679;47.966;7.958;2022-08-19T11:44:56;20.97;;;19.07;;
9280;SDS011;4679;47.966;7.958;2022-08-19T11:46:58;20.77;;;18.90;;
9280;SDS011;4679;47.966;7.958;2022-08-19T11:49:01;20.50;;;18.50;;
9280;SDS011;4679;47.966;7.958;2022-08-19T11:53:06;22.40;;;20.30;;
9280;SDS011;4679;47.966;7.958;2022-08-19T11:55:08;25.23;;;22.67;;
9280;SDS011;4679;47.966;7.958;2022-08-19T11:57:10;23.90;;;21.50;;
9280;SDS011;4679;47.966;7.958;2022-08-19T11:59:13;22.90;;;20.80;;
9280;SDS011;4679;47.966;7.958;2022-08-19T12:01:15;24.03;;;21.83;;
9280;SDS011;4679;47.966;7.958;2022-08-19T12:03:18;28.63;;;23.03;;
9280;SDS011;4679;47.966;7.958;2022-08-19T12:05:20;24.53;;;22.13;;
9280;SDS011;4679;47.966;7.958;2022-08-19T12:07:22;23.00;;;20.53;;
9280;SDS011;4679;47.966;7.958;2022-08-19T12:09:24;26.00;;;23.50;;
9280;SDS011;4679;47.966;7.958;2022-08-19T12:11:26;23.97;;;21.27;;
9280;SDS011;4679;47.966;7.958;2022-08-19T12:13:29;23.17;;;20.67;;
9280;SDS011;4679;47.966;7.958;2022-08-19T12:15:36;21.47;;;19.37;;
9280;SDS011;4679;47.966;7.958;2022-08-19T12:17:40;20.57;;;18.60;;
9280;SDS011;4679;47.966;7.958;2022-08-19T12:19:42;21.90;;;19.70;;
9280;SDS011;4679;47.966;7.958;2022-08-19T12:21:44;23.40;;;21.03;;
9280;SDS011;4679;47.966;7.958;2022-08-19T12:23:46;20.30;;;18.37;;
9280;SDS011;4679;47.966;7.958;2022-08-19T12:25:49;21.80;;;19.80;;
9280;SDS011;4679;47.966;7.958;2022-08-19T12:27:51;25.03;;;22.47;;
9280;SDS011;4679;47.966;7.958;2022-08-19T12:29:53;23.13;;;21.03;;
9280;SDS011;4679;47.966;7.958;2022-08-19T12:31:57;24.58;;;21.73;;
9280;SDS011;4679;47.966;7.958;2022-08-19T12:34:02;27.75;;;24.90;;
9280;SDS011;4679;47.966;7.958;2022-08-19T12:36:04;24.05;;;21.73;;
9280;SDS011;4679;47.966;7.958;2022-08-19T12:38:09;25.70;;;22.92;;
9280;SDS011;4679;47.966;7.958;2022-08-19T12:40:11;25.13;;;22.63;;
9280;SDS011;4679;47.966;7.958;2022-08-19T12:42:14;23.33;;;20.92;;
9280;SDS011;4679;47.966;7.958;2022-08-19T12:44:16;23.37;;;21.13;;
9280;SDS011;4679;47.966;7.958;2022-08-19T12:46:18;22.60;;;20.25;;
9280;SDS011;4679;47.966;7.958;2022-08-19T12:48:22;20.20;;;18.40;;
9280;SDS011;4679;47.966;7.958;2022-08-19T12:50:23;19.17;;;17.38;;
9280;SDS011;4679;47.966;7.958;2022-08-19T12:52:26;24.17;;;21.65;;
9280;SDS011;4679;47.966;7.958;2022-08-19T12:54:28;18.80;;;17.17;;
9280;SDS011;4679;47.966;7.958;2022-08-19T12:56:30;16.08;;;14.55;;
9280;SDS011;4679;47.966;7.958;2022-08-19T12:58:33;14.38;;;13.25;;
9280;SDS011;4679;47.966;7.958;2022-08-19T13:00:35;14.23;;;13.00;;
9280;SDS011;4679;47.966;7.958;2022-08-19T13:02:37;14.03;;;12.83;;
9280;SDS011;4679;47.966;7.958;2022-08-19T13:04:42;12.00;;;11.10;;
9280;SDS011;4679;47.966;7.958;2022-08-19T13:06:43;10.93;;;10.13;;
9280;SDS011;4679;47.966;7.958;2022-08-19T13:08:45;10.88;;;10.10;;
9280;SDS011;4679;47.966;7.958;2022-08-19T13:10:47;12.00;;;11.20;;
9280;SDS011;4679;47.966;7.958;2022-08-19T13:12:49;12.63;;;11.82;;
9280;SDS011;4679;47.966;7.958;2022-08-19T13:14:53;13.15;;;12.07;;
9280;SDS011;4679;47.966;7.958;2022-08-19T13:16:56;13.60;;;12.43;;
9280;SDS011;4679;47.966;7.958;2022-08-19T13:18:58;12.93;;;12.02;;
9280;SDS011;4679;47.966;7.958;2022-08-19T13:21:05;13.38;;;12.38;;
9280;SDS011;4679;47.966;7.958;2022-08-19T13:23:08;13.40;;;12.05;;
9280;SDS011;4679;47.966;7.958;2022-08-19T13:25:10;12.88;;;11.98;;
9280;SDS011;4679;47.966;7.958;2022-08-19T13:27:13;10.45;;;9.88;;
9280;SDS011;4679;47.966;7.958;2022-08-19T13:29:15;13.07;;;12.07;;
9280;SDS011;4679;47.966;7.958;2022-08-19T13:31:40;12.90;;;11.98;;
9280;SDS011;4679;47.966;7.958;2022-08-19T13:34:00;12.38;;;11.27;;
9280;SDS011;4679;47.966;7.958;2022-08-19T13:36:02;12.77;;;11.88;;
9280;SDS011;4679;47.966;7.958;2022-08-19T13:38:09;12.50;;;11.50;;
9280;SDS011;4679;47.966;7.958;2022-08-19T13:40:12;13.52;;;12.55;;
9280;SDS011;4679;47.966;7.958;2022-08-19T13:42:18;14.02;;;12.95;;
9280;SDS011;4679;47.966;7.958;2022-08-19T13:44:19;13.35;;;12.25;;
9280;SDS011;4679;47.966;7.958;2022-08-19T13:46:21;13.25;;;12.25;;
9280;SDS011;4679;47.966;7.958;2022-08-19T13:48:24;12.70;;;11.60;;
9280;SDS011;4679;47.966;7.958;2022-08-19T13:50:27;12.73;;;11.73;;
9280;SDS011;4679;47.966;7.958;2022-08-19T13:52:31;11.98;;;11.18;;
9280;SDS011;4679;47.966;7.958;2022-08-19T13:54:34;12.82;;;11.77;;
9280;SDS011;4679;47.966;7.958;2022-08-19T13:56:39;11.88;;;10.95;;
9280;SDS011;4679;47.966;7.958;2022-08-19T13:58:42;12.93;;;12.02;;
9280;SDS011;4679;47.966;7.958;2022-08-19T14:00:45;11.63;;;10.82;;
9280;SDS011;4679;47.966;7.958;2022-08-19T14:02:49;10.68;;;9.80;;
9280;SDS011;4679;47.966;7.958;2022-08-19T14:04:53;11.55;;;10.65;;
9280;SDS011;4679;47.966;7.958;2022-08-19T14:06:55;11.85;;;10.90;;
9280;SDS011;4679;47.966;7.958;2022-08-19T14:08:56;10.98;;;10.38;;
9280;SDS011;4679;47.966;7.958;2022-08-19T14:10:59;10.98;;;10.25;;
9280;SDS011;4679;47.966;7.958;2022-08-19T14:13:02;10.82;;;10.10;;
9280;SDS011;4679;47.966;7.958;2022-08-19T14:15:05;9.65;;;8.95;;
9280;SDS011;4679;47.966;7.958;2022-08-19T14:17:09;9.65;;;9.05;;
9280;SDS011;4679;47.966;7.958;2022-08-19T14:19:11;8.85;;;8.25;;
9280;SDS011;4679;47.966;7.958;2022-08-19T14:21:16;8.52;;;8.02;;
9280;SDS011;4679;47.966;7.958;2022-08-19T14:23:20;8.80;;;8.07;;
9280;SDS011;4679;47.966;7.958;2022-08-19T14:25:23;10.32;;;9.73;;
9280;SDS011;4679;47.966;7.958;2022-08-19T14:27:27;10.27;;;9.40;;
9280;SDS011;4679;47.966;7.958;2022-08-19T14:29:29;9.70;;;9.00;;
9280;SDS011;4679;47.966;7.958;2022-08-19T14:31:31;8.50;;;8.05;;
9280;SDS011;4679;47.966;7.958;2022-08-19T14:33:32;9.60;;;8.68;;
9280;SDS011;4679;47.966;7.958;2022-08-19T14:35:34;9.35;;;8.77;;
9280;SDS011;4679;47.966;7.958;2022-08-19T14:37:37;9.52;;;9.02;;
9280;SDS011;4679;47.966;7.958;2022-08-19T14:39:38;9.45;;;8.68;;
9280;SDS011;4679;47.966;7.958;2022-08-19T14:41:41;9.43;;;8.73;;
9280;SDS011;4679;47.966;7.958;2022-08-19T14:43:44;8.57;;;7.85;;
9280;SDS011;4679;47.966;7.958;2022-08-19T14:45:47;7.03;;;6.68;;
9280;SDS011;4679;47.966;7.958;2022-08-19T14:47:49;7.93;;;7.38;;
9280;SDS011;4679;47.966;7.958;2022-08-19T14:49:50;8.25;;;7.68;;
9280;SDS011;4679;47.966;7.958;2022-08-19T14:51:52;7.57;;;7.10;;
9280;SDS011;4679;47.966;7.958;2022-08-19T14:53:54;8.88;;;8.18;;
9280;SDS011;4679;47.966;7.958;2022-08-19T14:55:56;8.27;;;7.85;;
9280;SDS011;4679;47.966;7.958;2022-08-19T14:57:58;7.72;;;7.22;;
9280;SDS011;4679;47.966;7.958;2022-08-19T15:00:03;8.75;;;8.23;;
9280;SDS011;4679;47.966;7.958;2022-08-19T15:02:05;9.48;;;8.88;;
9280;SDS011;4679;47.966;7.958;2022-08-19T15:04:07;9.40;;;8.80;;
9280;SDS011;4679;47.966;7.958;2022-08-19T15:06:09;9.48;;;8.57;;
9280;SDS011;4679;47.966;7.958;2022-08-19T15:08:10;7.72;;;7.28;;
9280;SDS011;4679;47.966;7.958;2022-08-19T15:10:13;8.60;;;7.95;;
9280;SDS011;4679;47.966;7.958;2022-08-19T15:12:15;8.00;;;7.50;;
9280;SDS011;4679;47.966;7.958;2022-08-19T15:14:17;7.95;;;7.35;;
9280;SDS011;4679;47.966;7.958;2022-08-19T15:16:22;7.32;;;6.93;;
9280;SDS011;4679;47.966;7.958;2022-08-19T15:18:25;8.32;;;7.75;;
9280;SDS011;4679;47.966;7.958;2022-08-19T15:20:27;8.38;;;7.72;;
9280;SDS011;4679;47.966;7.958;2022-08-19T15:22:30;8.27;;;7.88;;
9280;SDS011;4679;47.966;7.958;2022-08-19T15:24:32;7.60;;;7.10;;
9280;SDS011;4679;47.966;7.958;2022-08-19T15:26:35;7.32;;;6.78;;
9280;SDS011;4679;47.966;7.958;2022-08-19T15:28:37;8.10;;;7.70;;
9280;SDS011;4679;47.966;7.958;2022-08-19T15:30:39;8.38;;;7.88;;
9280;SDS011;4679;47.966;7.958;2022-08-19T15:32:44;7.90;;;7.45;;
9280;SDS011;4679;47.966;7.958;2022-08-19T15:34:46;8.63;;;7.95;;
9280;SDS011;4679;47.966;7.958;2022-08-19T15:36:49;7.55;;;6.88;;
9280;SDS011;4679;47.966;7.958;2022-08-19T15:38:50;6.68;;;6.28;;
9280;SDS011;4679;47.966;7.958;2022-08-19T15:40:52;7.88;;;7.38;;
9280;SDS011;4679;47.966;7.958;2022-08-19T15:43:14;7.93;;;7.32;;
9280;SDS011;4679;47.966;7.958;2022-08-19T15:45:18;6.90;;;6.50;;
9280;SDS011;4679;47.966;7.958;2022-08-19T15:47:21;6.88;;;6.30;;
9280;SDS011;4679;47.966;7.958;2022-08-19T15:49:25;6.88;;;6.47;;
9280;SDS011;4679;47.966;7.958;2022-08-19T15:51:27;7.38;;;6.78;;
9280;SDS011;4679;47.966;7.958;2022-08-19T15:53:31;7.68;;;7.18;;
9280;SDS011;4679;47.966;7.958;2022-08-19T15:55:34;7.40;;;6.88;;
9280;SDS011;4679;47.966;7.958;2022-08-19T15:57:38;7.75;;;7.35;;
9280;SDS011;4679;47.966;7.958;2022-08-19T16:00:08;6.90;;;6.60;;
9280;SDS011;4679;47.966;7.958;2022-08-19T16:02:28;6.43;;;6.03;;
9280;SDS011;4679;47.966;7.958;2022-08-19T16:04:54;7.30;;;6.80;;
9280;SDS011;4679;47.966;7.958;2022-08-19T16:07:13;6.90;;;6.55;;
9280;SDS011;4679;47.966;7.958;2022-08-19T16:09:15;7.75;;;7.25;;
9280;SDS011;4679;47.966;7.958;2022-08-19T16:11:18;8.27;;;7.57;;
9280;SDS011;4679;47.966;7.958;2022-08-19T16:13:20;7.38;;;6.95;;
9280;SDS011;4679;47.966;7.958;2022-08-19T16:15:23;7.32;;;6.93;;
9280;SDS011;4679;47.966;7.958;2022-08-19T16:17:26;7.60;;;6.85;;
9280;SDS011;4679;47.966;7.958;2022-08-19T16:19:28;6.70;;;6.40;;
9280;SDS011;4679;47.966;7.958;2022-08-19T16:21:33;7.88;;;7.28;;
9280;SDS011;4679;47.966;7.958;2022-08-19T16:23:36;6.85;;;6.45;;
9280;SDS011;4679;47.966;7.958;2022-08-19T16:25:38;7.70;;;7.13;;
9280;SDS011;4679;47.966;7.958;2022-08-19T16:27:40;6.82;;;6.50;;
9280;SDS011;4679;47.966;7.958;2022-08-19T16:29:42;7.53;;;7.03;;
9280;SDS011;4679;47.966;7.958;2022-08-19T16:31:44;6.68;;;6.38;;
9280;SDS011;4679;47.966;7.958;2022-08-19T16:33:46;8.13;;;7.68;;
9280;SDS011;4679;47.966;7.958;2022-08-19T16:35:48;7.40;;;6.90;;
9280;SDS011;4679;47.966;7.958;2022-08-19T16:37:51;7.68;;;6.97;;
9280;SDS011;4679;47.966;7.958;2022-08-19T16:39:53;7.32;;;6.82;;
9280;SDS011;4679;47.966;7.958;2022-08-19T16:41:55;6.95;;;6.55;;
9280;SDS011;4679;47.966;7.958;2022-08-19T16:43:57;7.70;;;7.30;;
9280;SDS011;4679;47.966;7.958;2022-08-19T16:45:59;6.75;;;6.43;;
9280;SDS011;4679;47.966;7.958;2022-08-19T16:48:01;7.45;;;6.90;;
9280;SDS011;4679;47.966;7.958;2022-08-19T16:50:04;7.72;;;7.10;;
9280;SDS011;4679;47.966;7.958;2022-08-19T16:52:07;6.97;;;6.43;;
9280;SDS011;4679;47.966;7.958;2022-08-19T16:54:11;6.03;;;5.70;;
9280;SDS011;4679;47.966;7.958;2022-08-19T16:56:13;6.30;;;5.77;;
9280;SDS011;4679;47.966;7.958;2022-08-19T16:58:15;6.30;;;5.90;;
9280;SDS011;4679;47.966;7.958;2022-08-19T17:00:18;7.63;;;6.88;;
9280;SDS011;4679;47.966;7.958;2022-08-19T17:02:20;8.18;;;7.40;;
9280;SDS011;4679;47.966;7.958;2022-08-19T17:04:23;6.20;;;5.90;;
9280;SDS011;4679;47.966;7.958;2022-08-19T17:06:26;7.10;;;6.70;;
9280;SDS011;4679;47.966;7.958;2022-08-19T17:08:30;6.47;;;6.00;;
9280;SDS011;4679;47.966;7.958;2022-08-19T17:10:34;10.25;;;7.30;;
9280;SDS011;4679;47.966;7.958;2022-08-19T17:12:37;7.30;;;6.85;;
9280;SDS011;4679;47.966;7.958;2022-08-19T17:14:39;6.65;;;6.22;;
9280;SDS011;4679;47.966;7.958;2022-08-19T17:16:41;6.22;;;5.78;;
9280;SDS011;4679;47.966;7.958;2022-08-19T17:18:43;6.85;;;6.45;;
9280;SDS011;4679;47.966;7.958;2022-08-19T17:20:45;7.40;;;7.00;;
9280;SDS011;4679;47.966;7.958;2022-08-19T17:22:47;7.28;;;6.60;;
9280;SDS011;4679;47.966;7.958;2022-08-19T17:24:49;7.40;;;6.90;;
9280;SDS011;4679;47.966;7.958;2022-08-19T17:26:52;6.32;;;5.97;;
9280;SDS011;4679;47.966;7.958;2022-08-19T17:28:54;6.85;;;6.45;;
9280;SDS011;4679;47.966;7.958;2022-08-19T17:30:57;7.57;;;7.07;;
9280;SDS011;4679;47.966;7.958;2022-08-19T17:32:59;7.20;;;6.80;;
9280;SDS011;4679;47.966;7.958;2022-08-19T17:35:01;6.22;;;5.93;;
9280;SDS011;4679;47.966;7.958;2022-08-19T17:37:04;7.50;;;7.00;;
9280;SDS011;4679;47.966;7.958;2022-08-19T17:39:06;6.90;;;6.50;;
9280;SDS011;4679;47.966;7.958;2022-08-19T17:41:07;7.05;;;6.35;;
9280;SDS011;4679;47.966;7.958;2022-08-19T17:43:11;6.88;;;6.47;;
9280;SDS011;4679;47.966;7.958;2022-08-19T17:45:14;7.05;;;6.65;;
9280;SDS011;4679;47.966;7.958;2022-08-19T17:47:16;6.70;;;6.28;;
9280;SDS011;4679;47.966;7.958;2022-08-19T17:49:20;6.90;;;6.55;;
9280;SDS011;4679;47.966;7.958;2022-08-19T17:51:38;7.55;;;6.88;;
9280;SDS011;4679;47.966;7.958;2022-08-19T17:53:42;6.95;;;6.57;;
9280;SDS011;4679;47.966;7.958;2022-08-19T17:55:44;7.30;;;6.82;;
9280;SDS011;4679;47.966;7.958;2022-08-19T17:57:46;7.07;;;6.68;;
9280;SDS011;4679;47.966;7.958;2022-08-19T17:59:49;6.63;;;6.23;;
9280;SDS011;4679;47.966;7.958;2022-08-19T18:01:51;6.95;;;6.55;;
9280;SDS011;4679;47.966;7.958;2022-08-19T18:03:53;8.27;;;7.40;;
9280;SDS011;4679;47.966;7.958;2022-08-19T18:05:55;7.35;;;6.75;;
9280;SDS011;4679;47.966;7.958;2022-08-19T18:07:58;7.28;;;6.78;;
9280;SDS011;4679;47.966;7.958;2022-08-19T18:10:00;7.78;;;7.18;;
9280;SDS011;4679;47.966;7.958;2022-08-19T18:12:02;7.18;;;6.57;;